createdAt,value
2019-03-31T13:12:43.679Z,1012.53
2019-03-31T13:13:43.683Z,1012.51
2019-03-31T13:14:42.948Z,1012.50
2019-03-31T13:15:42.836Z,1012.53
2019-03-31T13:16:43.116Z,1012.50
2019-03-31T13:20:16.413Z,1012.46
2019-03-31T13:21:16.355Z,1012.45
2019-03-31T13:22:16.305Z,1012.43
2019-03-31T13:23:16.239Z,1012.42
2019-03-31T13:24:16.177Z,1012.43
2019-03-31T13:25:16.113Z,1012.38
2019-03-31T13:26:16.057Z,1012.45
2019-03-31T13:27:15.990Z,1012.39
2019-03-31T13:28:15.911Z,1012.37
2019-03-31T13:29:15.837Z,1012.41
2019-03-31T13:30:15.758Z,1012.44
2019-03-31T13:31:15.688Z,1012.37
2019-03-31T13:32:15.615Z,1012.44
2019-03-31T13:33:15.540Z,1012.40
2019-03-31T13:34:15.464Z,1012.40
2019-03-31T13:35:15.391Z,1012.39
2019-03-31T13:36:15.315Z,1012.38
2019-03-31T13:37:15.238Z,1012.39
2019-03-31T13:38:15.158Z,1012.39
2019-03-31T13:39:15.087Z,1012.33
2019-03-31T13:40:15.008Z,1012.40
2019-03-31T13:41:14.934Z,1012.30
2019-03-31T13:42:14.859Z,1012.34
2019-03-31T13:43:14.788Z,1012.29
2019-03-31T13:44:14.713Z,1012.28
2019-03-31T13:45:14.641Z,1012.27
2019-03-31T13:46:14.566Z,1012.26
2019-03-31T13:47:14.512Z,1012.30
2019-03-31T13:48:14.415Z,1012.30
2019-03-31T13:49:14.340Z,1012.28
2019-03-31T13:50:14.265Z,1012.28
2019-03-31T13:51:14.190Z,1012.28
2019-03-31T13:52:14.110Z,1012.31
2019-03-31T13:53:16.263Z,1012.30
2019-03-31T13:54:13.950Z,1012.30
2019-03-31T13:55:13.869Z,1012.28
2019-03-31T13:56:14.185Z,1012.30
2019-03-31T13:57:14.167Z,1012.27
2019-03-31T13:58:14.248Z,1012.27
2019-03-31T13:59:13.563Z,1012.26
2019-03-31T14:00:13.481Z,1012.19
2019-03-31T14:01:13.408Z,1012.22
2019-03-31T14:02:13.328Z,1012.25
2019-03-31T14:03:13.252Z,1012.23
2019-03-31T14:04:13.175Z,1012.22
2019-03-31T14:05:13.089Z,1012.25
2019-03-31T14:06:13.010Z,1012.25
2019-03-31T14:07:12.937Z,1012.24
2019-03-31T14:08:25.104Z,1012.28
2019-03-31T14:09:14.113Z,1012.28
2019-03-31T14:10:12.711Z,1012.24
2019-03-31T14:11:12.634Z,1012.24
2019-03-31T14:12:12.556Z,1012.24
2019-03-31T14:13:12.478Z,1012.26
2019-03-31T14:14:12.399Z,1012.27
2019-03-31T14:15:19.145Z,1012.26
2019-03-31T14:16:14.193Z,1012.27
2019-03-31T14:17:12.169Z,1012.31
2019-03-31T14:18:12.091Z,1012.29
2019-03-31T14:19:13.199Z,1012.27
2019-03-31T14:20:11.929Z,1012.29
2019-03-31T14:21:11.861Z,1012.27
2019-03-31T14:22:11.767Z,1012.28
2019-03-31T14:23:11.686Z,1012.26
2019-03-31T14:24:11.604Z,1012.35
2019-03-31T14:25:11.523Z,1012.29
2019-03-31T14:26:11.434Z,1012.27
2019-03-31T14:27:11.367Z,1012.26
2019-03-31T14:28:11.336Z,1012.25
2019-03-31T14:29:11.171Z,1012.31
2019-03-31T14:30:11.086Z,1012.23
2019-03-31T14:31:11.004Z,1012.26
2019-03-31T14:32:10.928Z,1012.29
2019-03-31T14:33:10.868Z,1012.24
